<?xml version="1.0" encoding="utf-8"?>
<gpx xmlns:xsi="http://www.w3.org/2001/XMLSchema-instance" xmlns:xsd="http://www.w3.org/2001/XMLSchema" version="1.1" creator="Shapelink.com" xmlns="http://www.topografix.com/GPX/1/1" xmlns:gpxtpx="http://www.garmin.com/xmlschemas/TrackPointExtension/v1">
  <metadata>
    <name>Cykling 15.45 km, 2019-07-21</name>
    <desc></desc>
    <author><name>Marian Moron</name></author> 
    <time>2019-07-21T11:40:59Z</time>
  </metadata>
  <trk>
    <name>Cykling 15.45 km, 2019-07-21</name>
    <trkseg>
      <trkpt lat="51.214205029043" lon="4.410499705089">
        <ele>0</ele>
        <time>2019-07-21T11:40:59Z</time>
      </trkpt>
      <trkpt lat="51.2142388081" lon="4.410567682298">
        <ele>0</ele>
        <time>2019-07-21T11:41:05Z</time>
      </trkpt>
      <trkpt lat="51.214648850648" lon="4.411172268745">
        <ele>0</ele>
        <time>2019-07-21T11:41:22Z</time>
      </trkpt>
      <trkpt lat="51.215065431078" lon="4.411747602361">
        <ele>0</ele>
        <time>2019-07-21T11:41:37Z</time>
      </trkpt>
      <trkpt lat="51.215512353986" lon="4.412265771419">
        <ele>0</ele>
        <time>2019-07-21T11:41:52Z</time>
      </trkpt>
      <trkpt lat="51.215980231644" lon="4.412716466182">
        <ele>0</ele>
        <time>2019-07-21T11:42:06Z</time>
      </trkpt>
      <trkpt lat="51.216479792884" lon="4.413189624437">
        <ele>0</ele>
        <time>2019-07-21T11:42:18Z</time>
      </trkpt>
      <trkpt lat="51.216968206197" lon="4.413614754405">
        <ele>0</ele>
        <time>2019-07-21T11:42:31Z</time>
      </trkpt>
      <trkpt lat="51.217194517497" lon="4.413773339953">
        <ele>0</ele>
        <time>2019-07-21T11:42:36Z</time>
      </trkpt>
      <trkpt lat="51.217739676273" lon="4.414067377005">
        <ele>0</ele>
        <time>2019-07-21T11:42:47Z</time>
      </trkpt>
      <trkpt lat="51.218239572789" lon="4.414476329906">
        <ele>0</ele>
        <time>2019-07-21T11:43:01Z</time>
      </trkpt>
      <trkpt lat="51.218784563927" lon="4.414744131611">
        <ele>1.4</ele>
        <time>2019-07-21T11:43:13Z</time>
      </trkpt>
      <trkpt lat="51.21930231389" lon="4.415036408464">
        <ele>7.6</ele>
        <time>2019-07-21T11:43:29Z</time>
      </trkpt>
      <trkpt lat="51.219826517916" lon="4.41528149522">
        <ele>7.6</ele>
        <time>2019-07-21T11:43:43Z</time>
      </trkpt>
      <trkpt lat="51.219935398797" lon="4.415316615381">
        <ele>11.2</ele>
        <time>2019-07-21T11:43:51Z</time>
      </trkpt>
      <trkpt lat="51.220389697777" lon="4.415405379702">
        <ele>20</ele>
        <time>2019-07-21T11:44:06Z</time>
      </trkpt>
      <trkpt lat="51.220501344685" lon="4.415564216707">
        <ele>19</ele>
        <time>2019-07-21T11:44:08Z</time>
      </trkpt>
      <trkpt lat="51.220571165912" lon="4.41570394298">
        <ele>18.6</ele>
        <time>2019-07-21T11:44:10Z</time>
      </trkpt>
      <trkpt lat="51.220670826703" lon="4.416230996852">
        <ele>19</ele>
        <time>2019-07-21T11:44:20Z</time>
      </trkpt>
      <trkpt lat="51.220976514596" lon="4.416360916302">
        <ele>23.4</ele>
        <time>2019-07-21T11:44:29Z</time>
      </trkpt>
      <trkpt lat="51.221174411255" lon="4.416344068683">
        <ele>25.4</ele>
        <time>2019-07-21T11:44:33Z</time>
      </trkpt>
      <trkpt lat="51.221719905307" lon="4.416168384059">
        <ele>30.2</ele>
        <time>2019-07-21T11:44:42Z</time>
      </trkpt>
      <trkpt lat="51.222242265315" lon="4.415890440255">
        <ele>21.2</ele>
        <time>2019-07-21T11:44:50Z</time>
      </trkpt>
      <trkpt lat="51.222633197131" lon="4.415768148334">
        <ele>20</ele>
        <time>2019-07-21T11:44:56Z</time>
      </trkpt>
      <trkpt lat="51.222840900613" lon="4.415788013437">
        <ele>19.4</ele>
        <time>2019-07-21T11:44:59Z</time>
      </trkpt>
      <trkpt lat="51.222995798125" lon="4.415751384534">
        <ele>19.4</ele>
        <time>2019-07-21T11:45:01Z</time>
      </trkpt>
      <trkpt lat="51.223532491182" lon="4.415557427368">
        <ele>18.6</ele>
        <time>2019-07-21T11:45:08Z</time>
      </trkpt>
      <trkpt lat="51.224109668816" lon="4.415340755253">
        <ele>19.4</ele>
        <time>2019-07-21T11:45:16Z</time>
      </trkpt>
      <trkpt lat="51.224213436738" lon="4.415281914315">
        <ele>20.6</ele>
        <time>2019-07-21T11:45:18Z</time>
      </trkpt>
      <trkpt lat="51.224309744769" lon="4.415195329288">
        <ele>22</ele>
        <time>2019-07-21T11:45:20Z</time>
      </trkpt>
      <trkpt lat="51.224410662845" lon="4.41515073758">
        <ele>22.8</ele>
        <time>2019-07-21T11:45:22Z</time>
      </trkpt>
      <trkpt lat="51.224957414182" lon="4.414908835946">
        <ele>16</ele>
        <time>2019-07-21T11:45:33Z</time>
      </trkpt>
      <trkpt lat="51.225009046686" lon="4.414901711331">
        <ele>15.8</ele>
        <time>2019-07-21T11:45:34Z</time>
      </trkpt>
      <trkpt lat="51.225114826264" lon="4.414888887024">
        <ele>14.8</ele>
        <time>2019-07-21T11:45:36Z</time>
      </trkpt>
      <trkpt lat="51.225681358885" lon="4.414671125262">
        <ele>11.8</ele>
        <time>2019-07-21T11:45:46Z</time>
      </trkpt>
      <trkpt lat="51.225731063552" lon="4.41464363263">
        <ele>11.4</ele>
        <time>2019-07-21T11:45:47Z</time>
      </trkpt>
      <trkpt lat="51.225903395416" lon="4.414484963263">
        <ele>10.4</ele>
        <time>2019-07-21T11:45:51Z</time>
      </trkpt>
      <trkpt lat="51.226443273595" lon="4.414222190698">
        <ele>0.6</ele>
        <time>2019-07-21T11:46:04Z</time>
      </trkpt>
      <trkpt lat="51.226989605837" lon="4.414076261819">
        <ele>0</ele>
        <time>2019-07-21T11:46:13Z</time>
      </trkpt>
      <trkpt lat="51.227520096288" lon="4.413896889159">
        <ele>0</ele>
        <time>2019-07-21T11:46:22Z</time>
      </trkpt>
      <trkpt lat="51.227577512303" lon="4.413869480346">
        <ele>0</ele>
        <time>2019-07-21T11:46:23Z</time>
      </trkpt>
      <trkpt lat="51.227874315382" lon="4.413672421877">
        <ele>0</ele>
        <time>2019-07-21T11:46:28Z</time>
      </trkpt>
      <trkpt lat="51.228310509458" lon="4.413672673334">
        <ele>7.8</ele>
        <time>2019-07-21T11:46:35Z</time>
      </trkpt>
      <trkpt lat="51.228888190006" lon="4.413460695083">
        <ele>12.8</ele>
        <time>2019-07-21T11:46:45Z</time>
      </trkpt>
      <trkpt lat="51.229374507844" lon="4.413260367673">
        <ele>14.6</ele>
        <time>2019-07-21T11:46:54Z</time>
      </trkpt>
      <trkpt lat="51.229467211658" lon="4.413151905887">
        <ele>16.8</ele>
        <time>2019-07-21T11:46:56Z</time>
      </trkpt>
      <trkpt lat="51.229551365934" lon="4.413050317259">
        <ele>17</ele>
        <time>2019-07-21T11:46:58Z</time>
      </trkpt>
      <trkpt lat="51.229644321205" lon="4.412996756918">
        <ele>16.4</ele>
        <time>2019-07-21T11:47:00Z</time>
      </trkpt>
      <trkpt lat="51.22986183151" lon="4.412897766679">
        <ele>18.4</ele>
        <time>2019-07-21T11:47:06Z</time>
      </trkpt>
      <trkpt lat="51.229898041318" lon="4.412950321192">
        <ele>19.6</ele>
        <time>2019-07-21T11:47:09Z</time>
      </trkpt>
      <trkpt lat="51.229898795689" lon="4.412959038368">
        <ele>20.6</ele>
        <time>2019-07-21T11:47:10Z</time>
      </trkpt>
      <trkpt lat="51.229895610567" lon="4.412994409986">
        <ele>24.4</ele>
        <time>2019-07-21T11:47:19Z</time>
      </trkpt>
      <trkpt lat="51.22989452092" lon="4.413077223158">
        <ele>23.8</ele>
        <time>2019-07-21T11:47:24Z</time>
      </trkpt>
      <trkpt lat="51.229810282825" lon="4.413966123653">
        <ele>26.8</ele>
        <time>2019-07-21T11:47:38Z</time>
      </trkpt>
      <trkpt lat="51.229870548686" lon="4.414849324456">
        <ele>16.2</ele>
        <time>2019-07-21T11:47:50Z</time>
      </trkpt>
      <trkpt lat="51.229915391851" lon="4.415330445516">
        <ele>13.6</ele>
        <time>2019-07-21T11:47:59Z</time>
      </trkpt>
      <trkpt lat="51.229905920304" lon="4.41619596051">
        <ele>14.4</ele>
        <time>2019-07-21T11:48:09Z</time>
      </trkpt>
      <trkpt lat="51.229878679129" lon="4.417084358091">
        <ele>7.6</ele>
        <time>2019-07-21T11:48:19Z</time>
      </trkpt>
      <trkpt lat="51.229914805118" lon="4.417222324165">
        <ele>9</ele>
        <time>2019-07-21T11:48:22Z</time>
      </trkpt>
      <trkpt lat="51.230245387254" lon="4.417084525729">
        <ele>10.6</ele>
        <time>2019-07-21T11:48:32Z</time>
      </trkpt>
      <trkpt lat="51.230473207296" lon="4.417134984767">
        <ele>9.6</ele>
        <time>2019-07-21T11:48:36Z</time>
      </trkpt>
      <trkpt lat="51.230550404595" lon="4.417278650533">
        <ele>10.6</ele>
        <time>2019-07-21T11:48:38Z</time>
      </trkpt>
      <trkpt lat="51.230609329352" lon="4.417448635465">
        <ele>11</ele>
        <time>2019-07-21T11:48:40Z</time>
      </trkpt>
      <trkpt lat="51.230627769532" lon="4.417633037265">
        <ele>9.2</ele>
        <time>2019-07-21T11:48:43Z</time>
      </trkpt>
      <trkpt lat="51.230590972991" lon="4.41777427228">
        <ele>8.2</ele>
        <time>2019-07-21T11:48:45Z</time>
      </trkpt>
      <trkpt lat="51.230526432361" lon="4.418253297865">
        <ele>5.6</ele>
        <time>2019-07-21T11:48:51Z</time>
      </trkpt>
      <trkpt lat="51.230517128452" lon="4.418597123403">
        <ele>4.8</ele>
        <time>2019-07-21T11:48:55Z</time>
      </trkpt>
      <trkpt lat="51.230516793176" lon="4.419041699379">
        <ele>3.2</ele>
        <time>2019-07-21T11:49:02Z</time>
      </trkpt>
      <trkpt lat="51.230466920871" lon="4.419164410395">
        <ele>0.8</ele>
        <time>2019-07-21T11:49:04Z</time>
      </trkpt>
      <trkpt lat="51.230345634778" lon="4.419441264552">
        <ele>0</ele>
        <time>2019-07-21T11:49:08Z</time>
      </trkpt>
      <trkpt lat="51.230206076143" lon="4.420340558603">
        <ele>0</ele>
        <time>2019-07-21T11:49:18Z</time>
      </trkpt>
      <trkpt lat="51.230199035347" lon="4.420519512168">
        <ele>0</ele>
        <time>2019-07-21T11:49:20Z</time>
      </trkpt>
      <trkpt lat="51.23019878389" lon="4.420696118801">
        <ele>0</ele>
        <time>2019-07-21T11:49:22Z</time>
      </trkpt>
      <trkpt lat="51.230152599621" lon="4.421245384708">
        <ele>0</ele>
        <time>2019-07-21T11:49:29Z</time>
      </trkpt>
      <trkpt lat="51.230120245487" lon="4.422132776461">
        <ele>0</ele>
        <time>2019-07-21T11:49:38Z</time>
      </trkpt>
      <trkpt lat="51.230145223549" lon="4.423005835165">
        <ele>0</ele>
        <time>2019-07-21T11:49:46Z</time>
      </trkpt>
      <trkpt lat="51.230207752523" lon="4.423893981289">
        <ele>0</ele>
        <time>2019-07-21T11:49:54Z</time>
      </trkpt>
      <trkpt lat="51.230244549064" lon="4.424314585031">
        <ele>0</ele>
        <time>2019-07-21T11:49:58Z</time>
      </trkpt>
      <trkpt lat="51.230297857948" lon="4.424764273966">
        <ele>0</ele>
        <time>2019-07-21T11:50:03Z</time>
      </trkpt>
      <trkpt lat="51.23027589737" lon="4.424930570862">
        <ele>0</ele>
        <time>2019-07-21T11:50:05Z</time>
      </trkpt>
      <trkpt lat="51.230197610424" lon="4.425041128123">
        <ele>0</ele>
        <time>2019-07-21T11:50:07Z</time>
      </trkpt>
      <trkpt lat="51.230161400616" lon="4.425162581854">
        <ele>0</ele>
        <time>2019-07-21T11:50:09Z</time>
      </trkpt>
      <trkpt lat="51.230099374556" lon="4.42571276977">
        <ele>0</ele>
        <time>2019-07-21T11:50:19Z</time>
      </trkpt>
      <trkpt lat="51.230000551955" lon="4.425894740819">
        <ele>0</ele>
        <time>2019-07-21T11:50:23Z</time>
      </trkpt>
      <trkpt lat="51.229934418764" lon="4.4260036217">
        <ele>0</ele>
        <time>2019-07-21T11:50:25Z</time>
      </trkpt>
      <trkpt lat="51.229846157357" lon="4.426070593081">
        <ele>0</ele>
        <time>2019-07-21T11:50:27Z</time>
      </trkpt>
      <trkpt lat="51.229762003081" lon="4.426164051266">
        <ele>0</ele>
        <time>2019-07-21T11:50:29Z</time>
      </trkpt>
      <trkpt lat="51.229709448568" lon="4.426315679837">
        <ele>0</ele>
        <time>2019-07-21T11:50:31Z</time>
      </trkpt>
      <trkpt lat="51.229525214406" lon="4.427179518451">
        <ele>0</ele>
        <time>2019-07-21T11:50:40Z</time>
      </trkpt>
      <trkpt lat="51.229336621656" lon="4.42807730376">
        <ele>0</ele>
        <time>2019-07-21T11:50:49Z</time>
      </trkpt>
      <trkpt lat="51.229289180102" lon="4.42826757289">
        <ele>0</ele>
        <time>2019-07-21T11:50:51Z</time>
      </trkpt>
      <trkpt lat="51.229029257383" lon="4.429055974404">
        <ele>0</ele>
        <time>2019-07-21T11:51:00Z</time>
      </trkpt>
      <trkpt lat="51.228822978824" lon="4.429920064475">
        <ele>0</ele>
        <time>2019-07-21T11:51:09Z</time>
      </trkpt>
      <trkpt lat="51.228759527841" lon="4.430210078215">
        <ele>0</ele>
        <time>2019-07-21T11:51:12Z</time>
      </trkpt>
      <trkpt lat="51.228737986358" lon="4.430493218797">
        <ele>0</ele>
        <time>2019-07-21T11:51:15Z</time>
      </trkpt>
      <trkpt lat="51.22859448823" lon="4.431080203254">
        <ele>0</ele>
        <time>2019-07-21T11:51:21Z</time>
      </trkpt>
      <trkpt lat="51.228526511021" lon="4.43125991119">
        <ele>0</ele>
        <time>2019-07-21T11:51:23Z</time>
      </trkpt>
      <trkpt lat="51.228365913817" lon="4.43211737956">
        <ele>0</ele>
        <time>2019-07-21T11:51:31Z</time>
      </trkpt>
      <trkpt lat="51.22814689477" lon="4.432941571787">
        <ele>0</ele>
        <time>2019-07-21T11:51:39Z</time>
      </trkpt>
      <trkpt lat="51.228029045256" lon="4.433445323977">
        <ele>0</ele>
        <time>2019-07-21T11:51:44Z</time>
      </trkpt>
      <trkpt lat="51.227993925095" lon="4.43376442291">
        <ele>0</ele>
        <time>2019-07-21T11:51:47Z</time>
      </trkpt>
      <trkpt lat="51.227797453359" lon="4.434569169129">
        <ele>0</ele>
        <time>2019-07-21T11:51:55Z</time>
      </trkpt>
      <trkpt lat="51.227619924717" lon="4.435212144678">
        <ele>0</ele>
        <time>2019-07-21T11:52:02Z</time>
      </trkpt>
      <trkpt lat="51.227178701501" lon="4.435821508808">
        <ele>6.4</ele>
        <time>2019-07-21T11:52:11Z</time>
      </trkpt>
      <trkpt lat="51.226805204037" lon="4.436386113592">
        <ele>8.6</ele>
        <time>2019-07-21T11:52:20Z</time>
      </trkpt>
      <trkpt lat="51.226806126046" lon="4.436730190587">
        <ele>7.8</ele>
        <time>2019-07-21T11:52:27Z</time>
      </trkpt>
      <trkpt lat="51.2268368038" lon="4.436765729843">
        <ele>7.6</ele>
        <time>2019-07-21T11:52:33Z</time>
      </trkpt>
      <trkpt lat="51.226821213466" lon="4.436764053463">
        <ele>7.2</ele>
        <time>2019-07-21T11:52:35Z</time>
      </trkpt>
      <trkpt lat="51.226638571865" lon="4.436712420959">
        <ele>0</ele>
        <time>2019-07-21T11:53:59Z</time>
      </trkpt>
      <trkpt lat="51.226659275158" lon="4.436783918566">
        <ele>0</ele>
        <time>2019-07-21T11:54:03Z</time>
      </trkpt>
      <trkpt lat="51.22672280996" lon="4.437091282839">
        <ele>0</ele>
        <time>2019-07-21T11:54:09Z</time>
      </trkpt>
      <trkpt lat="51.226792631187" lon="4.437303596366">
        <ele>0</ele>
        <time>2019-07-21T11:54:12Z</time>
      </trkpt>
      <trkpt lat="51.22681752543" lon="4.437464528846">
        <ele>0</ele>
        <time>2019-07-21T11:54:14Z</time>
      </trkpt>
      <trkpt lat="51.226823308941" lon="4.437609032802">
        <ele>0</ele>
        <time>2019-07-21T11:54:16Z</time>
      </trkpt>
      <trkpt lat="51.226838731637" lon="4.438130219344">
        <ele>0</ele>
        <time>2019-07-21T11:54:22Z</time>
      </trkpt>
      <trkpt lat="51.226915342203" lon="4.438553170018">
        <ele>0</ele>
        <time>2019-07-21T11:54:26Z</time>
      </trkpt>
      <trkpt lat="51.227048279137" lon="4.438838489894">
        <ele>0</ele>
        <time>2019-07-21T11:54:29Z</time>
      </trkpt>
      <trkpt lat="51.22752328141" lon="4.439499151252">
        <ele>7.6</ele>
        <time>2019-07-21T11:54:37Z</time>
      </trkpt>
      <trkpt lat="51.227753029289" lon="4.439994437723">
        <ele>4.6</ele>
        <time>2019-07-21T11:54:43Z</time>
      </trkpt>
      <trkpt lat="51.22779485497" lon="4.44034337622">
        <ele>0.6</ele>
        <time>2019-07-21T11:55:33Z</time>
      </trkpt>
      <trkpt lat="51.22801446075" lon="4.440783174513">
        <ele>0.4</ele>
        <time>2019-07-21T11:55:42Z</time>
      </trkpt>
      <trkpt lat="51.228144128743" lon="4.440961289888">
        <ele>0</ele>
        <time>2019-07-21T11:55:45Z</time>
      </trkpt>
      <trkpt lat="51.228466915712" lon="4.44159730846">
        <ele>0</ele>
        <time>2019-07-21T11:55:53Z</time>
      </trkpt>
      <trkpt lat="51.22855425511" lon="4.441728569014">
        <ele>0</ele>
        <time>2019-07-21T11:55:55Z</time>
      </trkpt>
      <trkpt lat="51.228630111305" lon="4.441889669132">
        <ele>0</ele>
        <time>2019-07-21T11:55:57Z</time>
      </trkpt>
      <trkpt lat="51.228856506424" lon="4.442279176025">
        <ele>0</ele>
        <time>2019-07-21T11:56:02Z</time>
      </trkpt>
      <trkpt lat="51.229268812085" lon="4.442715118644">
        <ele>0</ele>
        <time>2019-07-21T11:56:11Z</time>
      </trkpt>
      <trkpt lat="51.229301417676" lon="4.442816371996">
        <ele>3</ele>
        <time>2019-07-21T11:56:44Z</time>
      </trkpt>
      <trkpt lat="51.229318935847" lon="4.44287135726">
        <ele>3.2</ele>
        <time>2019-07-21T11:56:46Z</time>
      </trkpt>
      <trkpt lat="51.229512054823" lon="4.443695465668">
        <ele>0</ele>
        <time>2019-07-21T11:57:01Z</time>
      </trkpt>
      <trkpt lat="51.229527561338" lon="4.44394591684">
        <ele>0</ele>
        <time>2019-07-21T11:57:05Z</time>
      </trkpt>
      <trkpt lat="51.229736186829" lon="4.444746053014">
        <ele>0</ele>
        <time>2019-07-21T11:57:16Z</time>
      </trkpt>
      <trkpt lat="51.229824364417" lon="4.445071103096">
        <ele>0</ele>
        <time>2019-07-21T11:57:22Z</time>
      </trkpt>
      <trkpt lat="51.230061488368" lon="4.445855565117">
        <ele>0</ele>
        <time>2019-07-21T11:57:37Z</time>
      </trkpt>
      <trkpt lat="51.230069534992" lon="4.445873921478">
        <ele>0</ele>
        <time>2019-07-21T11:58:06Z</time>
      </trkpt>
      <trkpt lat="51.230073725942" lon="4.445890601459">
        <ele>0</ele>
        <time>2019-07-21T11:58:08Z</time>
      </trkpt>
      <trkpt lat="51.230323758019" lon="4.446728875278">
        <ele>0</ele>
        <time>2019-07-21T11:58:22Z</time>
      </trkpt>
      <trkpt lat="51.230570018241" lon="4.447580643956">
        <ele>0</ele>
        <time>2019-07-21T11:58:30Z</time>
      </trkpt>
      <trkpt lat="51.230787780003" lon="4.448385054899">
        <ele>0</ele>
        <time>2019-07-21T11:58:37Z</time>
      </trkpt>
      <trkpt lat="51.23099171163" lon="4.449227016754">
        <ele>0</ele>
        <time>2019-07-21T11:58:44Z</time>
      </trkpt>
      <trkpt lat="51.231186926081" lon="4.450131088488">
        <ele>1</ele>
        <time>2019-07-21T11:58:51Z</time>
      </trkpt>
      <trkpt lat="51.231371327881" lon="4.451069023098">
        <ele>1.8</ele>
        <time>2019-07-21T11:58:58Z</time>
      </trkpt>
      <trkpt lat="51.231531925085" lon="4.451937807033">
        <ele>2.4</ele>
        <time>2019-07-21T11:59:05Z</time>
      </trkpt>
      <trkpt lat="51.23176703738" lon="4.453097526717">
        <ele>5.2</ele>
        <time>2019-07-21T11:59:15Z</time>
      </trkpt>
      <trkpt lat="51.23192126434" lon="4.45392121603">
        <ele>5.6</ele>
        <time>2019-07-21T11:59:22Z</time>
      </trkpt>
      <trkpt lat="51.232083957019" lon="4.454838279709">
        <ele>5.4</ele>
        <time>2019-07-21T11:59:30Z</time>
      </trkpt>
      <trkpt lat="51.23223977654" lon="4.455744195461">
        <ele>6</ele>
        <time>2019-07-21T11:59:38Z</time>
      </trkpt>
      <trkpt lat="51.23232108097" lon="4.456289018961">
        <ele>5.6</ele>
        <time>2019-07-21T11:59:43Z</time>
      </trkpt>
      <trkpt lat="51.232385956876" lon="4.456590180628">
        <ele>6.2</ele>
        <time>2019-07-21T11:59:46Z</time>
      </trkpt>
      <trkpt lat="51.232393584405" lon="4.456767541632">
        <ele>5.6</ele>
        <time>2019-07-21T11:59:48Z</time>
      </trkpt>
      <trkpt lat="51.232043137166" lon="4.456691182523">
        <ele>2.2</ele>
        <time>2019-07-21T11:59:56Z</time>
      </trkpt>
      <trkpt lat="51.231971388102" lon="4.456609794274">
        <ele>2.4</ele>
        <time>2019-07-21T11:59:58Z</time>
      </trkpt>
      <trkpt lat="51.231472581233" lon="4.456192208016">
        <ele>0.4</ele>
        <time>2019-07-21T12:00:10Z</time>
      </trkpt>
      <trkpt lat="51.231420110539" lon="4.456137138933">
        <ele>0.2</ele>
        <time>2019-07-21T12:00:12Z</time>
      </trkpt>
      <trkpt lat="51.231402676187" lon="4.456096905813">
        <ele>0</ele>
        <time>2019-07-21T12:00:17Z</time>
      </trkpt>
      <trkpt lat="51.23126579976" lon="4.455988695484">
        <ele>0</ele>
        <time>2019-07-21T12:00:21Z</time>
      </trkpt>
      <trkpt lat="51.231224896088" lon="4.455877802947">
        <ele>0</ele>
        <time>2019-07-21T12:00:23Z</time>
      </trkpt>
      <trkpt lat="51.23116605515" lon="4.454978425077">
        <ele>0</ele>
        <time>2019-07-21T12:00:35Z</time>
      </trkpt>
      <trkpt lat="51.231105537832" lon="4.454070581488">
        <ele>0</ele>
        <time>2019-07-21T12:00:48Z</time>
      </trkpt>
      <trkpt lat="51.231002440462" lon="4.453189979074">
        <ele>0</ele>
        <time>2019-07-21T12:01:00Z</time>
      </trkpt>
      <trkpt lat="51.230857852687" lon="4.452309544298">
        <ele>0</ele>
        <time>2019-07-21T12:01:13Z</time>
      </trkpt>
      <trkpt lat="51.23084083743" lon="4.452223965099">
        <ele>0</ele>
        <time>2019-07-21T12:01:14Z</time>
      </trkpt>
      <trkpt lat="51.230686275194" lon="4.45134545816">
        <ele>0</ele>
        <time>2019-07-21T12:01:25Z</time>
      </trkpt>
      <trkpt lat="51.230659034019" lon="4.451044045036">
        <ele>0</ele>
        <time>2019-07-21T12:01:29Z</time>
      </trkpt>
      <trkpt lat="51.230613101207" lon="4.450884872755">
        <ele>0</ele>
        <time>2019-07-21T12:01:31Z</time>
      </trkpt>
      <trkpt lat="51.230529617483" lon="4.450771381829">
        <ele>0</ele>
        <time>2019-07-21T12:01:33Z</time>
      </trkpt>
      <trkpt lat="51.230382012224" lon="4.450742548093">
        <ele>0</ele>
        <time>2019-07-21T12:01:36Z</time>
      </trkpt>
      <trkpt lat="51.229854790714" lon="4.450961650959">
        <ele>0</ele>
        <time>2019-07-21T12:01:44Z</time>
      </trkpt>
      <trkpt lat="51.229760159063" lon="4.450876826131">
        <ele>0</ele>
        <time>2019-07-21T12:01:46Z</time>
      </trkpt>
      <trkpt lat="51.2297285593" lon="4.450697872566">
        <ele>0</ele>
        <time>2019-07-21T12:01:48Z</time>
      </trkpt>
      <trkpt lat="51.229573661788" lon="4.449795812488">
        <ele>0</ele>
        <time>2019-07-21T12:01:58Z</time>
      </trkpt>
      <trkpt lat="51.229452375695" lon="4.448929710761">
        <ele>0</ele>
        <time>2019-07-21T12:02:08Z</time>
      </trkpt>
      <trkpt lat="51.229429912203" lon="4.448849915073">
        <ele>0</ele>
        <time>2019-07-21T12:02:09Z</time>
      </trkpt>
      <trkpt lat="51.229284737695" lon="4.448566103939">
        <ele>0</ele>
        <time>2019-07-21T12:02:13Z</time>
      </trkpt>
      <trkpt lat="51.228883160866" lon="4.447956991266">
        <ele>0</ele>
        <time>2019-07-21T12:02:22Z</time>
      </trkpt>
      <trkpt lat="51.228503879891" lon="4.447285852533">
        <ele>0.8</ele>
        <time>2019-07-21T12:02:32Z</time>
      </trkpt>
      <trkpt lat="51.22835811865" lon="4.44719557947">
        <ele>1</ele>
        <time>2019-07-21T12:02:35Z</time>
      </trkpt>
      <trkpt lat="51.228249237769" lon="4.447270765113">
        <ele>1</ele>
        <time>2019-07-21T12:02:37Z</time>
      </trkpt>
      <trkpt lat="51.22779736954" lon="4.447802512849">
        <ele>0.4</ele>
        <time>2019-07-21T12:02:46Z</time>
      </trkpt>
      <trkpt lat="51.227340891266" lon="4.448432999367">
        <ele>0.8</ele>
        <time>2019-07-21T12:02:55Z</time>
      </trkpt>
      <trkpt lat="51.227041489798" lon="4.448957538669">
        <ele>1</ele>
        <time>2019-07-21T12:03:02Z</time>
      </trkpt>
      <trkpt lat="51.226987761819" lon="4.449311254849">
        <ele>1.4</ele>
        <time>2019-07-21T12:03:06Z</time>
      </trkpt>
      <trkpt lat="51.226968315811" lon="4.450003180694">
        <ele>2.4</ele>
        <time>2019-07-21T12:03:18Z</time>
      </trkpt>
      <trkpt lat="51.227008381293" lon="4.449570758473">
        <ele>2.2</ele>
        <time>2019-07-21T12:03:24Z</time>
      </trkpt>
      <trkpt lat="51.226996227538" lon="4.449421393015">
        <ele>2.2</ele>
        <time>2019-07-21T12:03:26Z</time>
      </trkpt>
      <trkpt lat="51.226898997498" lon="4.44921897013">
        <ele>2.2</ele>
        <time>2019-07-21T12:03:29Z</time>
      </trkpt>
      <trkpt lat="51.226830768832" lon="4.449176641535">
        <ele>2.2</ele>
        <time>2019-07-21T12:03:31Z</time>
      </trkpt>
      <trkpt lat="51.226746446918" lon="4.449245037839">
        <ele>2.2</ele>
        <time>2019-07-21T12:03:33Z</time>
      </trkpt>
      <trkpt lat="51.226655838579" lon="4.449327431916">
        <ele>2.2</ele>
        <time>2019-07-21T12:03:35Z</time>
      </trkpt>
      <trkpt lat="51.226521392903" lon="4.449179659019">
        <ele>1.6</ele>
        <time>2019-07-21T12:03:38Z</time>
      </trkpt>
      <trkpt lat="51.226346546469" lon="4.448816722749">
        <ele>0.4</ele>
        <time>2019-07-21T12:03:43Z</time>
      </trkpt>
      <trkpt lat="51.226346630288" lon="4.448636595718">
        <ele>0</ele>
        <time>2019-07-21T12:03:45Z</time>
      </trkpt>
      <trkpt lat="51.226394574756" lon="4.448458647981">
        <ele>0</ele>
        <time>2019-07-21T12:03:47Z</time>
      </trkpt>
      <trkpt lat="51.226553663218" lon="4.448107111095">
        <ele>0</ele>
        <time>2019-07-21T12:03:51Z</time>
      </trkpt>
      <trkpt lat="51.226986672172" lon="4.447458016759">
        <ele>0</ele>
        <time>2019-07-21T12:04:00Z</time>
      </trkpt>
      <trkpt lat="51.22741431671" lon="4.446840438367">
        <ele>0</ele>
        <time>2019-07-21T12:04:09Z</time>
      </trkpt>
      <trkpt lat="51.227827376742" lon="4.446238534128">
        <ele>0</ele>
        <time>2019-07-21T12:04:18Z</time>
      </trkpt>
      <trkpt lat="51.228123090174" lon="4.44576311276">
        <ele>0</ele>
        <time>2019-07-21T12:04:25Z</time>
      </trkpt>
      <trkpt lat="51.22844529041" lon="4.444952331573">
        <ele>0</ele>
        <time>2019-07-21T12:04:34Z</time>
      </trkpt>
      <trkpt lat="51.228817782046" lon="4.444259818995">
        <ele>0</ele>
        <time>2019-07-21T12:04:43Z</time>
      </trkpt>
      <trkpt lat="51.229128247622" lon="4.443954717835">
        <ele>0</ele>
        <time>2019-07-21T12:04:49Z</time>
      </trkpt>
      <trkpt lat="51.229404347408" lon="4.443826642403">
        <ele>0</ele>
        <time>2019-07-21T12:04:54Z</time>
      </trkpt>
      <trkpt lat="51.229505433122" lon="4.443904594073">
        <ele>0</ele>
        <time>2019-07-21T12:04:56Z</time>
      </trkpt>
      <trkpt lat="51.22955756854" lon="4.444079859602">
        <ele>0</ele>
        <time>2019-07-21T12:04:58Z</time>
      </trkpt>
      <trkpt lat="51.229714561527" lon="4.444729121576">
        <ele>0</ele>
        <time>2019-07-21T12:05:05Z</time>
      </trkpt>
      <trkpt lat="51.229689918741" lon="4.444957528351">
        <ele>0</ele>
        <time>2019-07-21T12:05:08Z</time>
      </trkpt>
      <trkpt lat="51.22962210917" lon="4.445067834155">
        <ele>0</ele>
        <time>2019-07-21T12:05:10Z</time>
      </trkpt>
      <trkpt lat="51.229222711635" lon="4.445648532187">
        <ele>0</ele>
        <time>2019-07-21T12:05:18Z</time>
      </trkpt>
      <trkpt lat="51.2287981684" lon="4.446222524699">
        <ele>0</ele>
        <time>2019-07-21T12:05:26Z</time>
      </trkpt>
      <trkpt lat="51.228384353997" lon="4.446889891577">
        <ele>0</ele>
        <time>2019-07-21T12:05:35Z</time>
      </trkpt>
      <trkpt lat="51.227974311449" lon="4.447523647036">
        <ele>0</ele>
        <time>2019-07-21T12:05:45Z</time>
      </trkpt>
      <trkpt lat="51.227559239761" lon="4.44815195426">
        <ele>1.4</ele>
        <time>2019-07-21T12:05:55Z</time>
      </trkpt>
      <trkpt lat="51.227168894678" lon="4.448784620072">
        <ele>3</ele>
        <time>2019-07-21T12:06:04Z</time>
      </trkpt>
      <trkpt lat="51.227058002141" lon="4.449047057361">
        <ele>2.4</ele>
        <time>2019-07-21T12:06:07Z</time>
      </trkpt>
      <trkpt lat="51.227011650234" lon="4.449218551035">
        <ele>2.2</ele>
        <time>2019-07-21T12:06:09Z</time>
      </trkpt>
      <trkpt lat="51.227021624695" lon="4.449343273707">
        <ele>1.8</ele>
        <time>2019-07-21T12:06:11Z</time>
      </trkpt>
      <trkpt lat="51.227073257199" lon="4.449359953688">
        <ele>1.4</ele>
        <time>2019-07-21T12:06:13Z</time>
      </trkpt>
      <trkpt lat="51.227190352342" lon="4.448995257219">
        <ele>0</ele>
        <time>2019-07-21T12:06:19Z</time>
      </trkpt>
      <trkpt lat="51.227583714909" lon="4.448316742414">
        <ele>0</ele>
        <time>2019-07-21T12:06:28Z</time>
      </trkpt>
      <trkpt lat="51.227957631468" lon="4.447636383591">
        <ele>0</ele>
        <time>2019-07-21T12:06:37Z</time>
      </trkpt>
      <trkpt lat="51.228247896665" lon="4.447028444384">
        <ele>0</ele>
        <time>2019-07-21T12:06:45Z</time>
      </trkpt>
      <trkpt lat="51.228678139592" lon="4.446437101339">
        <ele>0</ele>
        <time>2019-07-21T12:06:55Z</time>
      </trkpt>
      <trkpt lat="51.229095642031" lon="4.445810638133">
        <ele>0</ele>
        <time>2019-07-21T12:07:07Z</time>
      </trkpt>
      <trkpt lat="51.229530159727" lon="4.445203872392">
        <ele>0</ele>
        <time>2019-07-21T12:07:18Z</time>
      </trkpt>
      <trkpt lat="51.229685476334" lon="4.444937663248">
        <ele>0</ele>
        <time>2019-07-21T12:07:23Z</time>
      </trkpt>
      <trkpt lat="51.229753705" lon="4.444965407337">
        <ele>0</ele>
        <time>2019-07-21T12:07:25Z</time>
      </trkpt>
      <trkpt lat="51.229809528454" lon="4.445131285138">
        <ele>0</ele>
        <time>2019-07-21T12:07:27Z</time>
      </trkpt>
      <trkpt lat="51.230074312675" lon="4.445972157346">
        <ele>0</ele>
        <time>2019-07-21T12:07:36Z</time>
      </trkpt>
      <trkpt lat="51.230309927884" lon="4.446775730099">
        <ele>0</ele>
        <time>2019-07-21T12:07:44Z</time>
      </trkpt>
      <trkpt lat="51.230447893958" lon="4.447167751562">
        <ele>0</ele>
        <time>2019-07-21T12:07:48Z</time>
      </trkpt>
      <trkpt lat="51.230700105329" lon="4.447976018179">
        <ele>0</ele>
        <time>2019-07-21T12:07:56Z</time>
      </trkpt>
      <trkpt lat="51.23091711272" lon="4.448768359186">
        <ele>1</ele>
        <time>2019-07-21T12:08:04Z</time>
      </trkpt>
      <trkpt lat="51.231114590284" lon="4.449580313839">
        <ele>1.8</ele>
        <time>2019-07-21T12:08:12Z</time>
      </trkpt>
      <trkpt lat="51.231326400897" lon="4.450418168563">
        <ele>3.6</ele>
        <time>2019-07-21T12:08:20Z</time>
      </trkpt>
      <trkpt lat="51.231505354462" lon="4.451279408788">
        <ele>5.4</ele>
        <time>2019-07-21T12:08:28Z</time>
      </trkpt>
      <trkpt lat="51.231685397674" lon="4.452115838589">
        <ele>7.8</ele>
        <time>2019-07-21T12:08:36Z</time>
      </trkpt>
      <trkpt lat="51.231830823639" lon="4.453036422666">
        <ele>9</ele>
        <time>2019-07-21T12:08:45Z</time>
      </trkpt>
      <trkpt lat="51.231985218237" lon="4.453953570164">
        <ele>10.2</ele>
        <time>2019-07-21T12:08:54Z</time>
      </trkpt>
      <trkpt lat="51.232112036384" lon="4.454893264973">
        <ele>9.2</ele>
        <time>2019-07-21T12:09:03Z</time>
      </trkpt>
      <trkpt lat="51.232167189286" lon="4.455293919793">
        <ele>9.8</ele>
        <time>2019-07-21T12:09:07Z</time>
      </trkpt>
      <trkpt lat="51.23231102269" lon="4.456128673214">
        <ele>9.2</ele>
        <time>2019-07-21T12:09:16Z</time>
      </trkpt>
      <trkpt lat="51.232448150574" lon="4.456706940495">
        <ele>10.4</ele>
        <time>2019-07-21T12:09:22Z</time>
      </trkpt>
      <trkpt lat="51.232385034867" lon="4.456881032558">
        <ele>9.8</ele>
        <time>2019-07-21T12:09:24Z</time>
      </trkpt>
      <trkpt lat="51.232086220132" lon="4.456737702068">
        <ele>6</ele>
        <time>2019-07-21T12:09:29Z</time>
      </trkpt>
      <trkpt lat="51.231579618096" lon="4.456253814981">
        <ele>0.6</ele>
        <time>2019-07-21T12:09:38Z</time>
      </trkpt>
      <trkpt lat="51.231457326175" lon="4.456174689845">
        <ele>0</ele>
        <time>2019-07-21T12:09:40Z</time>
      </trkpt>
      <trkpt lat="51.231337632643" lon="4.456089781198">
        <ele>0</ele>
        <time>2019-07-21T12:09:42Z</time>
      </trkpt>
      <trkpt lat="51.230838741955" lon="4.455663729221">
        <ele>0</ele>
        <time>2019-07-21T12:09:51Z</time>
      </trkpt>
      <trkpt lat="51.230333648661" lon="4.455255949786">
        <ele>0</ele>
        <time>2019-07-21T12:10:00Z</time>
      </trkpt>
      <trkpt lat="51.229815395784" lon="4.454972893023">
        <ele>0</ele>
        <time>2019-07-21T12:10:10Z</time>
      </trkpt>
      <trkpt lat="51.229566537173" lon="4.454866861988">
        <ele>0</ele>
        <time>2019-07-21T12:10:15Z</time>
      </trkpt>
      <trkpt lat="51.22923235082" lon="4.454765021903">
        <ele>0</ele>
        <time>2019-07-21T12:10:22Z</time>
      </trkpt>
      <trkpt lat="51.228679480696" lon="4.454616829911">
        <ele>0</ele>
        <time>2019-07-21T12:10:31Z</time>
      </trkpt>
      <trkpt lat="51.228082689416" lon="4.454538291508">
        <ele>0</ele>
        <time>2019-07-21T12:10:41Z</time>
      </trkpt>
      <trkpt lat="51.227533758785" lon="4.454540806078">
        <ele>0</ele>
        <time>2019-07-21T12:10:50Z</time>
      </trkpt>
      <trkpt lat="51.226993964425" lon="4.454510798876">
        <ele>0</ele>
        <time>2019-07-21T12:10:59Z</time>
      </trkpt>
      <trkpt lat="51.226899248955" lon="4.454496717284">
        <ele>0</ele>
        <time>2019-07-21T12:11:01Z</time>
      </trkpt>
      <trkpt lat="51.226808472978" lon="4.454492191058">
        <ele>0</ele>
        <time>2019-07-21T12:11:03Z</time>
      </trkpt>
      <trkpt lat="51.226380409345" lon="4.454545332304">
        <ele>0</ele>
        <time>2019-07-21T12:11:11Z</time>
      </trkpt>
      <trkpt lat="51.225803399349" lon="4.454488754479">
        <ele>0</ele>
        <time>2019-07-21T12:11:21Z</time>
      </trkpt>
      <trkpt lat="51.225242650239" lon="4.454522701174">
        <ele>0</ele>
        <time>2019-07-21T12:11:31Z</time>
      </trkpt>
      <trkpt lat="51.224769240527" lon="4.454561928466">
        <ele>0</ele>
        <time>2019-07-21T12:11:39Z</time>
      </trkpt>
      <trkpt lat="51.22422081281" lon="4.454556731688">
        <ele>0</ele>
        <time>2019-07-21T12:11:48Z</time>
      </trkpt>
      <trkpt lat="51.223743128329" lon="4.454528819961">
        <ele>2</ele>
        <time>2019-07-21T12:11:57Z</time>
      </trkpt>
      <trkpt lat="51.223738183008" lon="4.45454482939">
        <ele>3.2</ele>
        <time>2019-07-21T12:13:31Z</time>
      </trkpt>
      <trkpt lat="51.223721000113" lon="4.454543320648">
        <ele>3.2</ele>
        <time>2019-07-21T12:13:34Z</time>
      </trkpt>
      <trkpt lat="51.223162933211" lon="4.454516750025">
        <ele>4.2</ele>
        <time>2019-07-21T12:13:47Z</time>
      </trkpt>
      <trkpt lat="51.222591958183" lon="4.454387584946">
        <ele>2</ele>
        <time>2019-07-21T12:13:56Z</time>
      </trkpt>
      <trkpt lat="51.222045458303" lon="4.454350620767">
        <ele>1.2</ele>
        <time>2019-07-21T12:14:05Z</time>
      </trkpt>
      <trkpt lat="51.221467191022" lon="4.454340143392">
        <ele>1.4</ele>
        <time>2019-07-21T12:14:14Z</time>
      </trkpt>
      <trkpt lat="51.220914320898" lon="4.454316590253">
        <ele>1</ele>
        <time>2019-07-21T12:14:23Z</time>
      </trkpt>
      <trkpt lat="51.220857323978" lon="4.454324301601">
        <ele>1</ele>
        <time>2019-07-21T12:14:24Z</time>
      </trkpt>
      <trkpt lat="51.220693122557" lon="4.45438724967">
        <ele>0.6</ele>
        <time>2019-07-21T12:14:27Z</time>
      </trkpt>
      <trkpt lat="51.220596982164" lon="4.454482300416">
        <ele>0.8</ele>
        <time>2019-07-21T12:14:29Z</time>
      </trkpt>
      <trkpt lat="51.22047745627" lon="4.454679694161">
        <ele>0.6</ele>
        <time>2019-07-21T12:14:32Z</time>
      </trkpt>
      <trkpt lat="51.220398834048" lon="4.454831238913">
        <ele>1</ele>
        <time>2019-07-21T12:14:34Z</time>
      </trkpt>
      <trkpt lat="51.220315937057" lon="4.454960068716">
        <ele>1</ele>
        <time>2019-07-21T12:14:36Z</time>
      </trkpt>
      <trkpt lat="51.220179563544" lon="4.455161318135">
        <ele>0.6</ele>
        <time>2019-07-21T12:14:39Z</time>
      </trkpt>
      <trkpt lat="51.220082920237" lon="4.45525226175">
        <ele>0.4</ele>
        <time>2019-07-21T12:14:41Z</time>
      </trkpt>
      <trkpt lat="51.219990216423" lon="4.455253602854">
        <ele>0.4</ele>
        <time>2019-07-21T12:14:43Z</time>
      </trkpt>
      <trkpt lat="51.219917712988" lon="4.455122426119">
        <ele>0.6</ele>
        <time>2019-07-21T12:14:45Z</time>
      </trkpt>
      <trkpt lat="51.219706656746" lon="4.454603837966">
        <ele>1</ele>
        <time>2019-07-21T12:14:51Z</time>
      </trkpt>
      <trkpt lat="51.219459390696" lon="4.453739747895">
        <ele>0.2</ele>
        <time>2019-07-21T12:15:00Z</time>
      </trkpt>
      <trkpt lat="51.219427455657" lon="4.453659449293">
        <ele>0.2</ele>
        <time>2019-07-21T12:15:01Z</time>
      </trkpt>
      <trkpt lat="51.219125539619" lon="4.452875574005">
        <ele>0</ele>
        <time>2019-07-21T12:15:11Z</time>
      </trkpt>
      <trkpt lat="51.218965696786" lon="4.452470979692">
        <ele>0</ele>
        <time>2019-07-21T12:15:17Z</time>
      </trkpt>
      <trkpt lat="51.21900894739" lon="4.452291523213">
        <ele>0</ele>
        <time>2019-07-21T12:15:20Z</time>
      </trkpt>
      <trkpt lat="51.219056891858" lon="4.452165375618">
        <ele>0</ele>
        <time>2019-07-21T12:15:22Z</time>
      </trkpt>
      <trkpt lat="51.219045157198" lon="4.452022883318">
        <ele>0</ele>
        <time>2019-07-21T12:15:24Z</time>
      </trkpt>
      <trkpt lat="51.218971564116" lon="4.451871590023">
        <ele>0</ele>
        <time>2019-07-21T12:15:26Z</time>
      </trkpt>
      <trkpt lat="51.218869975488" lon="4.451756003622">
        <ele>0</ele>
        <time>2019-07-21T12:15:28Z</time>
      </trkpt>
      <trkpt lat="51.218504021734" lon="4.451665227645">
        <ele>0</ele>
        <time>2019-07-21T12:15:34Z</time>
      </trkpt>
      <trkpt lat="51.218393967387" lon="4.451797326389">
        <ele>0</ele>
        <time>2019-07-21T12:15:36Z</time>
      </trkpt>
      <trkpt lat="51.218318195011" lon="4.451914421532">
        <ele>0</ele>
        <time>2019-07-21T12:15:38Z</time>
      </trkpt>
      <trkpt lat="51.218261198091" lon="4.452041742593">
        <ele>0</ele>
        <time>2019-07-21T12:15:40Z</time>
      </trkpt>
      <trkpt lat="51.218229765966" lon="4.452249529894">
        <ele>0</ele>
        <time>2019-07-21T12:15:42Z</time>
      </trkpt>
      <trkpt lat="51.218220042962" lon="4.452454299711">
        <ele>0</ele>
        <time>2019-07-21T12:15:44Z</time>
      </trkpt>
      <trkpt lat="51.218193137063" lon="4.453400113307">
        <ele>0</ele>
        <time>2019-07-21T12:15:53Z</time>
      </trkpt>
      <trkpt lat="51.218160782929" lon="4.454268813423">
        <ele>0</ele>
        <time>2019-07-21T12:16:05Z</time>
      </trkpt>
      <trkpt lat="51.218140247274" lon="4.45451633093">
        <ele>0</ele>
        <time>2019-07-21T12:16:08Z</time>
      </trkpt>
      <trkpt lat="51.218060619224" lon="4.455455271368">
        <ele>0</ele>
        <time>2019-07-21T12:16:18Z</time>
      </trkpt>
      <trkpt lat="51.217999598992" lon="4.45636118712">
        <ele>0</ele>
        <time>2019-07-21T12:16:27Z</time>
      </trkpt>
      <trkpt lat="51.217895328156" lon="4.457102314718">
        <ele>0</ele>
        <time>2019-07-21T12:16:35Z</time>
      </trkpt>
      <trkpt lat="51.217588299159" lon="4.457872946604">
        <ele>0</ele>
        <time>2019-07-21T12:16:44Z</time>
      </trkpt>
      <trkpt lat="51.217293004822" lon="4.45861591822">
        <ele>0</ele>
        <time>2019-07-21T12:16:52Z</time>
      </trkpt>
      <trkpt lat="51.216947335266" lon="4.459325781331">
        <ele>0</ele>
        <time>2019-07-21T12:17:01Z</time>
      </trkpt>
      <trkpt lat="51.216602084805" lon="4.460097670502">
        <ele>0</ele>
        <time>2019-07-21T12:17:11Z</time>
      </trkpt>
      <trkpt lat="51.216267814633" lon="4.460813820038">
        <ele>0</ele>
        <time>2019-07-21T12:17:20Z</time>
      </trkpt>
      <trkpt lat="51.215962378197" lon="4.4615596415">
        <ele>0</ele>
        <time>2019-07-21T12:17:30Z</time>
      </trkpt>
      <trkpt lat="51.215635065002" lon="4.46225450101">
        <ele>0</ele>
        <time>2019-07-21T12:17:39Z</time>
      </trkpt>
      <trkpt lat="51.215561304282" lon="4.462375032732">
        <ele>0</ele>
        <time>2019-07-21T12:17:41Z</time>
      </trkpt>
      <trkpt lat="51.215457201084" lon="4.462344354978">
        <ele>0</ele>
        <time>2019-07-21T12:17:44Z</time>
      </trkpt>
      <trkpt lat="51.215151010277" lon="4.461618063343">
        <ele>0</ele>
        <time>2019-07-21T12:17:53Z</time>
      </trkpt>
      <trkpt lat="51.214838449226" lon="4.46087148751">
        <ele>0</ele>
        <time>2019-07-21T12:18:02Z</time>
      </trkpt>
      <trkpt lat="51.214526977822" lon="4.460172017955">
        <ele>0</ele>
        <time>2019-07-21T12:18:11Z</time>
      </trkpt>
      <trkpt lat="51.214255404262" lon="4.459371797962">
        <ele>0</ele>
        <time>2019-07-21T12:18:22Z</time>
      </trkpt>
      <trkpt lat="51.214172758728" lon="4.459140122246">
        <ele>0</ele>
        <time>2019-07-21T12:18:25Z</time>
      </trkpt>
      <trkpt lat="51.214028254772" lon="4.458705856007">
        <ele>0</ele>
        <time>2019-07-21T12:18:30Z</time>
      </trkpt>
      <trkpt lat="51.213942340297" lon="4.458624467758">
        <ele>0.2</ele>
        <time>2019-07-21T12:18:32Z</time>
      </trkpt>
      <trkpt lat="51.21384821156" lon="4.458642153567">
        <ele>0.4</ele>
        <time>2019-07-21T12:18:34Z</time>
      </trkpt>
      <trkpt lat="51.213321576783" lon="4.459015064298">
        <ele>0.6</ele>
        <time>2019-07-21T12:18:43Z</time>
      </trkpt>
      <trkpt lat="51.21284322175" lon="4.459375653636">
        <ele>0.8</ele>
        <time>2019-07-21T12:18:52Z</time>
      </trkpt>
      <trkpt lat="51.212364447622" lon="4.45989080521">
        <ele>2.4</ele>
        <time>2019-07-21T12:19:03Z</time>
      </trkpt>
      <trkpt lat="51.211891624643" lon="4.460468066663">
        <ele>2.8</ele>
        <time>2019-07-21T12:19:14Z</time>
      </trkpt>
      <trkpt lat="51.211521899034" lon="4.461109282013">
        <ele>4.4</ele>
        <time>2019-07-21T12:19:24Z</time>
      </trkpt>
      <trkpt lat="51.211486275959" lon="4.461168709684">
        <ele>4.6</ele>
        <time>2019-07-21T12:19:25Z</time>
      </trkpt>
      <trkpt lat="51.21137471287" lon="4.461342717928">
        <ele>5</ele>
        <time>2019-07-21T12:19:28Z</time>
      </trkpt>
      <trkpt lat="51.211078747981" lon="4.462072027047">
        <ele>5.8</ele>
        <time>2019-07-21T12:19:38Z</time>
      </trkpt>
      <trkpt lat="51.210918402234" lon="4.46248584145">
        <ele>5.4</ele>
        <time>2019-07-21T12:19:44Z</time>
      </trkpt>
      <trkpt lat="51.210676081505" lon="4.463354290109">
        <ele>6.2</ele>
        <time>2019-07-21T12:19:55Z</time>
      </trkpt>
      <trkpt lat="51.210576839809" lon="4.463691493946">
        <ele>5.2</ele>
        <time>2019-07-21T12:19:59Z</time>
      </trkpt>
      <trkpt lat="51.210607182287" lon="4.463800291008">
        <ele>3.6</ele>
        <time>2019-07-21T12:20:01Z</time>
      </trkpt>
      <trkpt lat="51.210694270228" lon="4.463844463621">
        <ele>2.6</ele>
        <time>2019-07-21T12:20:03Z</time>
      </trkpt>
      <trkpt lat="51.211250744569" lon="4.464036912045">
        <ele>0.4</ele>
        <time>2019-07-21T12:20:13Z</time>
      </trkpt>
      <trkpt lat="51.211603203464" lon="4.464064823772">
        <ele>0</ele>
        <time>2019-07-21T12:20:19Z</time>
      </trkpt>
      <trkpt lat="51.212193708319" lon="4.463929288449">
        <ele>0</ele>
        <time>2019-07-21T12:20:29Z</time>
      </trkpt>
      <trkpt lat="51.212755044162" lon="4.463798530809">
        <ele>0</ele>
        <time>2019-07-21T12:20:39Z</time>
      </trkpt>
      <trkpt lat="51.213300286757" lon="4.463648578618">
        <ele>0</ele>
        <time>2019-07-21T12:20:49Z</time>
      </trkpt>
      <trkpt lat="51.213835303434" lon="4.463499296979">
        <ele>0</ele>
        <time>2019-07-21T12:21:00Z</time>
      </trkpt>
      <trkpt lat="51.214417594027" lon="4.46336510276">
        <ele>0</ele>
        <time>2019-07-21T12:21:12Z</time>
      </trkpt>
      <trkpt lat="51.214964932097" lon="4.463182293521">
        <ele>0</ele>
        <time>2019-07-21T12:21:23Z</time>
      </trkpt>
      <trkpt lat="51.215509420321" lon="4.462822961468">
        <ele>0</ele>
        <time>2019-07-21T12:21:34Z</time>
      </trkpt>
      <trkpt lat="51.216028259931" lon="4.462481818138">
        <ele>0</ele>
        <time>2019-07-21T12:21:46Z</time>
      </trkpt>
      <trkpt lat="51.216533017949" lon="4.462128437234">
        <ele>0</ele>
        <time>2019-07-21T12:21:56Z</time>
      </trkpt>
      <trkpt lat="51.217092677412" lon="4.461798022736">
        <ele>0</ele>
        <time>2019-07-21T12:22:06Z</time>
      </trkpt>
      <trkpt lat="51.21762677208" lon="4.461463417288">
        <ele>0</ele>
        <time>2019-07-21T12:22:16Z</time>
      </trkpt>
      <trkpt lat="51.217715452582" lon="4.461386052351">
        <ele>0</ele>
        <time>2019-07-21T12:22:18Z</time>
      </trkpt>
      <trkpt lat="51.217891472482" lon="4.461237357445">
        <ele>0</ele>
        <time>2019-07-21T12:22:22Z</time>
      </trkpt>
      <trkpt lat="51.217931370326" lon="4.461086147969">
        <ele>0</ele>
        <time>2019-07-21T12:22:24Z</time>
      </trkpt>
      <trkpt lat="51.217956348388" lon="4.460216274387">
        <ele>0</ele>
        <time>2019-07-21T12:22:33Z</time>
      </trkpt>
      <trkpt lat="51.218056847369" lon="4.459279932338">
        <ele>0</ele>
        <time>2019-07-21T12:22:43Z</time>
      </trkpt>
      <trkpt lat="51.218134799039" lon="4.458396815354">
        <ele>0</ele>
        <time>2019-07-21T12:22:52Z</time>
      </trkpt>
      <trkpt lat="51.218211241967" lon="4.457494168543">
        <ele>0</ele>
        <time>2019-07-21T12:23:01Z</time>
      </trkpt>
      <trkpt lat="51.218276536968" lon="4.456626474255">
        <ele>0</ele>
        <time>2019-07-21T12:23:10Z</time>
      </trkpt>
      <trkpt lat="51.21834426272" lon="4.455750314248">
        <ele>0</ele>
        <time>2019-07-21T12:23:19Z</time>
      </trkpt>
      <trkpt lat="51.218353650448" lon="4.454838698804">
        <ele>0</ele>
        <time>2019-07-21T12:23:29Z</time>
      </trkpt>
      <trkpt lat="51.218354237181" lon="4.45472923119">
        <ele>0</ele>
        <time>2019-07-21T12:23:30Z</time>
      </trkpt>
      <trkpt lat="51.218363960185" lon="4.453845946568">
        <ele>0</ele>
        <time>2019-07-21T12:23:38Z</time>
      </trkpt>
      <trkpt lat="51.218398996527" lon="4.452903318094">
        <ele>0</ele>
        <time>2019-07-21T12:23:48Z</time>
      </trkpt>
      <trkpt lat="51.218447276271" lon="4.45216269341">
        <ele>0</ele>
        <time>2019-07-21T12:23:57Z</time>
      </trkpt>
      <trkpt lat="51.218498824956" lon="4.452019614377">
        <ele>0</ele>
        <time>2019-07-21T12:23:59Z</time>
      </trkpt>
      <trkpt lat="51.218579291196" lon="4.451913667161">
        <ele>0</ele>
        <time>2019-07-21T12:24:01Z</time>
      </trkpt>
      <trkpt lat="51.218671324458" lon="4.451834625844">
        <ele>0</ele>
        <time>2019-07-21T12:24:03Z</time>
      </trkpt>
      <trkpt lat="51.218877267741" lon="4.451796572018">
        <ele>0</ele>
        <time>2019-07-21T12:24:06Z</time>
      </trkpt>
      <trkpt lat="51.218978018179" lon="4.45189363442">
        <ele>0</ele>
        <time>2019-07-21T12:24:08Z</time>
      </trkpt>
      <trkpt lat="51.219039289868" lon="4.451979884171">
        <ele>0</ele>
        <time>2019-07-21T12:24:10Z</time>
      </trkpt>
      <trkpt lat="51.21911120657" lon="4.452102092273">
        <ele>0</ele>
        <time>2019-07-21T12:24:12Z</time>
      </trkpt>
      <trkpt lat="51.219216734691" lon="4.452178032287">
        <ele>0</ele>
        <time>2019-07-21T12:24:14Z</time>
      </trkpt>
      <trkpt lat="51.219326369943" lon="4.452176607364">
        <ele>0</ele>
        <time>2019-07-21T12:24:16Z</time>
      </trkpt>
      <trkpt lat="51.219861302801" lon="4.452079964057">
        <ele>0</ele>
        <time>2019-07-21T12:24:26Z</time>
      </trkpt>
      <trkpt lat="51.220429511802" lon="4.451913164247">
        <ele>0</ele>
        <time>2019-07-21T12:24:37Z</time>
      </trkpt>
      <trkpt lat="51.220548534782" lon="4.451898747379">
        <ele>0</ele>
        <time>2019-07-21T12:24:39Z</time>
      </trkpt>
      <trkpt lat="51.22113124447" lon="4.451737311985">
        <ele>0</ele>
        <time>2019-07-21T12:24:49Z</time>
      </trkpt>
      <trkpt lat="51.221676989979" lon="4.451476299619">
        <ele>0</ele>
        <time>2019-07-21T12:24:59Z</time>
      </trkpt>
      <trkpt lat="51.222190548992" lon="4.451162816559">
        <ele>0</ele>
        <time>2019-07-21T12:25:07Z</time>
      </trkpt>
      <trkpt lat="51.222780131838" lon="4.451072878772">
        <ele>0</ele>
        <time>2019-07-21T12:25:16Z</time>
      </trkpt>
      <trkpt lat="51.222906698528" lon="4.451075980075">
        <ele>0</ele>
        <time>2019-07-21T12:25:18Z</time>
      </trkpt>
      <trkpt lat="51.223208782204" lon="4.451191566476">
        <ele>0</ele>
        <time>2019-07-21T12:25:23Z</time>
      </trkpt>
      <trkpt lat="51.223331744677" lon="4.451228195379">
        <ele>0</ele>
        <time>2019-07-21T12:25:25Z</time>
      </trkpt>
      <trkpt lat="51.223889560122" lon="4.451388289669">
        <ele>0</ele>
        <time>2019-07-21T12:25:34Z</time>
      </trkpt>
      <trkpt lat="51.223951418544" lon="4.451381165054">
        <ele>0</ele>
        <time>2019-07-21T12:25:35Z</time>
      </trkpt>
      <trkpt lat="51.224066418212" lon="4.451326850342">
        <ele>0</ele>
        <time>2019-07-21T12:25:37Z</time>
      </trkpt>
      <trkpt lat="51.224163480614" lon="4.451234314166">
        <ele>0</ele>
        <time>2019-07-21T12:25:39Z</time>
      </trkpt>
      <trkpt lat="51.224327346759" lon="4.451021162449">
        <ele>0</ele>
        <time>2019-07-21T12:25:43Z</time>
      </trkpt>
      <trkpt lat="51.224572601153" lon="4.450625955864">
        <ele>0</ele>
        <time>2019-07-21T12:25:50Z</time>
      </trkpt>
      <trkpt lat="51.224992701981" lon="4.449985662523">
        <ele>0</ele>
        <time>2019-07-21T12:26:01Z</time>
      </trkpt>
      <trkpt lat="51.225110383857" lon="4.449846355345">
        <ele>0</ele>
        <time>2019-07-21T12:26:04Z</time>
      </trkpt>
      <trkpt lat="51.225655458814" lon="4.449692379842">
        <ele>0</ele>
        <time>2019-07-21T12:26:16Z</time>
      </trkpt>
      <trkpt lat="51.225711366087" lon="4.449673436748">
        <ele>0</ele>
        <time>2019-07-21T12:26:17Z</time>
      </trkpt>
      <trkpt lat="51.22582175571" lon="4.449622055701">
        <ele>0</ele>
        <time>2019-07-21T12:26:19Z</time>
      </trkpt>
      <trkpt lat="51.226010013184" lon="4.449428601449">
        <ele>0</ele>
        <time>2019-07-21T12:26:23Z</time>
      </trkpt>
      <trkpt lat="51.226305223702" lon="4.448925771268">
        <ele>0</ele>
        <time>2019-07-21T12:26:31Z</time>
      </trkpt>
      <trkpt lat="51.226378900603" lon="4.448926358001">
        <ele>0</ele>
        <time>2019-07-21T12:26:33Z</time>
      </trkpt>
      <trkpt lat="51.226593644881" lon="4.449323995337">
        <ele>0</ele>
        <time>2019-07-21T12:26:39Z</time>
      </trkpt>
      <trkpt lat="51.22667000399" lon="4.449346458829">
        <ele>0</ele>
        <time>2019-07-21T12:26:41Z</time>
      </trkpt>
      <trkpt lat="51.226748458574" lon="4.449289210452">
        <ele>0</ele>
        <time>2019-07-21T12:26:43Z</time>
      </trkpt>
      <trkpt lat="51.226920706619" lon="4.449140934641">
        <ele>0</ele>
        <time>2019-07-21T12:26:48Z</time>
      </trkpt>
      <trkpt lat="51.227108964093" lon="4.449006740422">
        <ele>0</ele>
        <time>2019-07-21T12:26:52Z</time>
      </trkpt>
      <trkpt lat="51.227191274351" lon="4.448888974727">
        <ele>0</ele>
        <time>2019-07-21T12:26:54Z</time>
      </trkpt>
      <trkpt lat="51.227598634691" lon="4.448249268119">
        <ele>0</ele>
        <time>2019-07-21T12:27:03Z</time>
      </trkpt>
      <trkpt lat="51.228010018343" lon="4.447623810741">
        <ele>0</ele>
        <time>2019-07-21T12:27:17Z</time>
      </trkpt>
      <trkpt lat="51.2282784906" lon="4.447160459309">
        <ele>0</ele>
        <time>2019-07-21T12:27:25Z</time>
      </trkpt>
      <trkpt lat="51.228359459754" lon="4.447158782929">
        <ele>0</ele>
        <time>2019-07-21T12:27:27Z</time>
      </trkpt>
      <trkpt lat="51.228752487045" lon="4.447785329954">
        <ele>0</ele>
        <time>2019-07-21T12:27:36Z</time>
      </trkpt>
      <trkpt lat="51.229048535753" lon="4.448298302234">
        <ele>0</ele>
        <time>2019-07-21T12:27:44Z</time>
      </trkpt>
      <trkpt lat="51.229130426916" lon="4.448577335685">
        <ele>0.2</ele>
        <time>2019-07-21T12:27:50Z</time>
      </trkpt>
      <trkpt lat="51.229160182661" lon="4.448643720333">
        <ele>1.4</ele>
        <time>2019-07-21T12:28:52Z</time>
      </trkpt>
      <trkpt lat="51.22915691372" lon="4.44864983912">
        <ele>1.6</ele>
        <time>2019-07-21T12:28:53Z</time>
      </trkpt>
      <trkpt lat="51.228896488087" lon="4.449042028221">
        <ele>7.6</ele>
        <time>2019-07-21T12:29:06Z</time>
      </trkpt>
    </trkseg>
  </trk>
</gpx>